| time (UTC) | temp C | wind direction | speed KPH | gust KPH | rain 1hr cm | rain 24hr cm | rain mn cm | humidity % | barometer mb |
| 20260906051118 | 10 | 346 | 3.2 | 6.4 | 0.00 | 0.15 | 0.00 | 83 | 1005.0 |
| 20260906050116 | 10 | 312 | 8.0 | 14.5 | 0.00 | 0.15 | 0.00 | 84 | 1004.9 |
| 20260906045147 | 10 | 16 | 4.8 | 14.5 | 0.00 | 0.15 | 0.00 | 90 | 1004.0 |
| 20260906044143 | 10 | 298 | 4.8 | 9.7 | 0.00 | 0.15 | 0.00 | 91 | 1003.8 |
| 20260906043143 | 10 | 307 | 3.2 | 9.7 | 0.00 | 0.15 | 0.00 | 91 | 1003.7 |
| 20260906042145 | 10 | 348 | 3.2 | 6.4 | 0.00 | 0.15 | 0.00 | 91 | 1003.7 |
| 20260906041147 | 10 | 307 | 6.4 | 12.9 | 0.00 | 0.15 | 0.00 | 90 | 1003.7 |
| 20260906040147 | 9 | 309 | 4.8 | 14.5 | 0.00 | 0.15 | 0.00 | 90 | 1003.6 |
| 20260906035146 | 9 | 323 | 3.2 | 8.0 | 0.00 | 0.15 | 0.00 | 90 | 1003.5 |
| 20260906034144 | 9 | 330 | 3.2 | 9.7 | 0.00 | 0.15 | 0.00 | 90 | 1003.4 |
| 20260906033207 | 9 | 309 | 3.2 | 9.7 | 0.00 | 0.15 | 0.00 | 91 | 1003.3 |
| 20260906032144 | 9 | 310 | 6.4 | 12.9 | 0.00 | 0.15 | 0.00 | 91 | 1003.2 |
| 20260906031145 | 9 | 320 | 4.8 | 9.7 | 0.00 | 0.15 | 0.00 | 91 | 1003.1 |
| 20260906030143 | 9 | 328 | 3.2 | 6.4 | 0.00 | 0.15 | 0.00 | 90 | 1003.1 |
| 20260906025208 | 9 | 312 | 4.8 | 11.3 | 0.00 | 0.15 | 0.00 | 91 | 1003.0 |
| 20260906024144 | 10 | 324 | 4.8 | 9.7 | 0.00 | 0.15 | 0.00 | 90 | 1002.8 |
| 20260906023145 | 10 | 304 | 4.8 | 12.9 | 0.00 | 0.15 | 0.00 | 91 | 1002.8 |
| 20260906022140 | 10 | 351 | 3.2 | 6.4 | 0.00 | 0.15 | 0.00 | 91 | 1002.7 |
| 20260906021137 | 10 | 317 | 3.2 | 8.0 | 0.00 | 0.15 | 0.00 | 90 | 1002.6 |
| 20260906020139 | 10 | 341 | 3.2 | 6.4 | 0.00 | 0.15 | 0.00 | 90 | 1002.5 |
| 20260906015135 | 10 | 318 | 3.2 | 6.4 | 0.00 | 0.15 | 0.00 | 90 | 1002.4 |
| 20260906014134 | 10 | 299 | 3.2 | 6.4 | 0.00 | 0.15 | 0.00 | 90 | 1002.4 |
| 20260906013134 | 10 | 346 | 4.8 | 8.0 | 0.00 | 0.15 | 0.00 | 91 | 1002.4 |
| 20260906012136 | 10 | 353 | 1.6 | 3.2 | 0.00 | 0.15 | 0.00 | 91 | 1002.3 |
| 20260906011141 | 10 | 9 | 1.6 | 3.2 | 0.00 | 0.15 | 0.00 | 91 | 1002.2 |
| 20260906010117 | 10 | 356 | 3.2 | 8.0 | 0.00 | 0.15 | 0.00 | 91 | 1002.1 |
| 20260906005133 | 10 | 12 | 1.6 | 4.8 | 0.00 | 0.15 | 0.00 | 90 | 1001.5 |
| 20260906004154 | 10 | 310 | 3.2 | 6.4 | 0.00 | 0.15 | 0.00 | 90 | 1001.4 |
| 20260906003137 | 10 | 16 | 1.6 | 4.8 | 0.00 | 0.15 | 0.00 | 90 | 1001.4 |
| 20260906002140 | 10 | 343 | 3.2 | 6.4 | 0.00 | 0.15 | 0.00 | 90 | 1001.2 |
| 20260906001141 | 10 | 339 | 3.2 | 4.8 | 0.00 | 0.15 | 0.00 | 90 | 1001.2 |
| 20260906000137 | 10 | 341 | 3.2 | 4.8 | 0.00 | 0.15 | 0.00 | 90 | 1001.1 |
| 20260905235135 | 10 | 348 | 1.6 | 4.8 | 0.00 | 0.15 | 0.00 | 89 | 1001.0 |
| 20260905234136 | 11 | 310 | 3.2 | 6.4 | 0.00 | 0.15 | 0.00 | 90 | 1000.9 |
| 20260905233137 | 11 | 306 | 3.2 | 9.7 | 0.00 | 0.15 | 0.00 | 89 | 1000.9 |
| 20260905232218 | 11 | 340 | 4.8 | 11.3 | 0.00 | 0.15 | 0.00 | 90 | 1000.8 |
| 20260905231133 | 11 | 314 | 3.2 | 8.0 | 0.00 | 0.15 | 0.00 | 89 | 1000.8 |
| 20260905230141 | 11 | 299 | 3.2 | 4.8 | 0.00 | 0.15 | 0.00 | 89 | 1000.8 |
| 20260905225159 | 11 | 351 | 1.6 | 3.2 | 0.00 | 0.15 | 0.00 | 88 | 1000.7 |
| 20260905224140 | 11 | 325 | 3.2 | 6.4 | 0.00 | 0.15 | 0.00 | 89 | 1000.6 |
| 20260905223136 | 11 | 337 | 1.6 | 6.4 | 0.00 | 0.15 | 0.00 | 89 | 1000.5 |
| 20260905222155 | 11 | 331 | 3.2 | 6.4 | 0.00 | 0.15 | 0.00 | 89 | 1000.4 |
| 20260905221138 | 11 | 341 | 1.6 | 4.8 | 0.00 | 0.15 | 0.00 | 89 | 1000.5 |
| 20260905220138 | 11 | 320 | 3.2 | 4.8 | 0.00 | 0.15 | 0.00 | 89 | 1000.3 |
| 20260905215135 | 11 | 310 | 1.6 | 3.2 | 0.00 | 0.15 | 0.00 | 89 | 1000.3 |
| 20260905214202 | 12 | 11 | 1.6 | 4.8 | 0.00 | 0.15 | 0.00 | 89 | 1000.3 |
| 20260905213142 | 12 | 325 | 3.2 | 6.4 | 0.00 | 0.15 | 0.00 | 88 | 1000.2 |
| 20260905212136 | 12 | 334 | 1.6 | 4.8 | 0.00 | 0.15 | 0.00 | 88 | 1000.2 |
| 20260905211138 | 12 | 354 | 3.2 | 4.8 | 0.00 | 0.15 | 0.00 | 87 | 1000.2 |
| 20260905210116 | 12 | 332 | 1.6 | 4.8 | 0.00 | 0.15 | 0.00 | 86 | 1000.0 |
| 20260905205134 | 13 | 314 | 3.2 | 9.7 | 0.00 | 0.15 | 0.15 | 79 | 999.3 |
| 20260905204134 | 13 | 308 | 1.6 | 3.2 | 0.00 | 0.15 | 0.15 | 78 | 999.3 |
| 20260905203139 | 14 | 314 | 4.8 | 8.0 | 0.00 | 0.15 | 0.15 | 77 | 999.3 |
| 20260905202137 | 14 | 314 | 3.2 | 6.4 | 0.00 | 0.15 | 0.15 | 76 | 999.1 |
| 20260905201139 | 14 | 305 | 4.8 | 9.7 | 0.00 | 0.15 | 0.15 | 75 | 999.1 |
| 20260905200138 | 14 | 320 | 3.2 | 6.4 | 0.00 | 0.15 | 0.15 | 74 | 999.1 |
| 20260905195157 | 15 | 324 | 3.2 | 6.4 | 0.00 | 0.15 | 0.15 | 73 | 998.9 |
| 20260905194140 | 15 | 331 | 1.6 | 3.2 | 0.00 | 0.15 | 0.15 | 72 | 998.9 |
| 20260905193134 | 15 | 331 | 4.8 | 8.0 | 0.00 | 0.15 | 0.15 | 71 | 998.9 |
| 20260905192136 | 15 | 318 | 3.2 | 6.4 | 0.00 | 0.15 | 0.15 | 71 | 998.9 |
| 20260905191141 | 15 | 309 | 1.6 | 4.8 | 0.00 | 0.15 | 0.15 | 71 | 998.8 |
| 20260905190139 | 15 | 298 | 4.8 | 11.3 | 0.00 | 0.15 | 0.15 | 70 | 998.8 |
| 20260905185138 | 15 | 297 | 4.8 | 9.7 | 0.00 | 0.15 | 0.15 | 70 | 998.7 |
| 20260905184139 | 15 | 311 | 3.2 | 6.4 | 0.00 | 0.15 | 0.15 | 69 | 998.7 |
| 20260905183138 | 15 | 308 | 3.2 | 6.4 | 0.00 | 0.15 | 0.15 | 68 | 998.7 |
| 20260905182154 | 15 | 326 | 3.2 | 6.4 | 0.00 | 0.15 | 0.15 | 69 | 998.7 |
| 20260905181154 | 15 | 299 | 3.2 | 6.4 | 0.00 | 0.15 | 0.15 | 71 | 998.6 |
| 20260905180139 | 15 | 306 | 3.2 | 6.4 | 0.00 | 0.15 | 0.15 | 71 | 998.5 |
| 20260905175138 | 15 | 288 | 3.2 | 6.4 | 0.00 | 0.15 | 0.15 | 70 | 998.5 |
| 20260905174202 | 15 | 325 | 1.6 | 3.2 | 0.00 | 0.15 | 0.15 | 68 | 998.5 |
| 20260905173142 | 15 | 301 | 3.2 | 4.8 | 0.00 | 0.15 | 0.15 | 68 | 998.4 |
| 20260905172158 | 15 | 295 | 1.6 | 3.2 | 0.00 | 0.15 | 0.15 | 67 | 998.3 |
| 20260905171154 | 15 | 341 | 1.6 | 4.8 | 0.00 | 0.15 | 0.15 | 67 | 998.2 |
| 20260905170136 | 15 | 320 | 3.2 | 4.8 | 0.00 | 0.15 | 0.15 | 66 | 998.1 |
| 20260905165137 | 16 | 296 | 1.6 | 4.8 | 0.00 | 0.15 | 0.15 | 66 | 997.4 |
| 20260905164157 | 16 | 18 | 1.6 | 1.6 | 0.00 | 0.15 | 0.15 | 69 | 997.3 |
| 20260905163135 | 16 | 75 | 0.0 | 1.6 | 0.00 | 0.15 | 0.15 | 71 | 997.3 |
| 20260905162140 | 16 | 0 | 0.0 | 1.6 | 0.00 | 0.15 | 0.15 | 69 | 997.3 |
| 20260905161139 | 16 | 6 | 1.6 | 1.6 | 0.00 | 0.15 | 0.15 | 68 | 997.3 |
| 20260905160139 | 16 | 351 | 1.6 | 1.6 | 0.00 | 0.15 | 0.15 | 68 | 997.3 |
| 20260905155132 | 16 | 40 | 1.6 | 1.6 | 0.00 | 0.15 | 0.15 | 68 | 997.1 |
| 20260905154133 | 16 | 344 | 0.0 | 1.6 | 0.00 | 0.15 | 0.15 | 70 | 997.2 |
| 20260905153134 | 16 | 358 | 1.6 | 1.6 | 0.00 | 0.15 | 0.15 | 67 | 997.0 |
| 20260905152141 | 16 | 58 | 1.6 | 1.6 | 0.00 | 0.15 | 0.15 | 65 | 997.1 |
| 20260905151140 | 16 | 322 | 3.2 | 6.4 | 0.00 | 0.15 | 0.15 | 67 | 997.0 |
| 20260905150139 | 16 | 160 | 3.2 | 11.3 | 0.00 | 0.13 | 0.13 | 72 | 997.0 |
| 20260905145141 | 16 | 234 | 1.6 | 4.8 | 0.00 | 0.13 | 0.13 | 70 | 996.8 |
| 20260905144135 | 16 | 201 | 4.8 | 6.4 | 0.00 | 0.13 | 0.13 | 69 | 996.7 |
| 20260905143140 | 16 | 205 | 4.8 | 8.0 | 0.03 | 0.13 | 0.13 | 72 | 996.7 |
| 20260905142135 | 15 | 190 | 3.2 | 4.8 | 0.05 | 0.13 | 0.13 | 69 | 996.6 |
| 20260905141139 | 15 | 188 | 3.2 | 4.8 | 0.05 | 0.13 | 0.13 | 74 | 996.6 |
| 20260905140138 | 15 | 197 | 4.8 | 8.0 | 0.05 | 0.15 | 0.13 | 77 | 996.5 |
| 20260905135134 | 15 | 151 | 3.2 | 6.4 | 0.08 | 0.15 | 0.13 | 75 | 996.5 |
| 20260905134138 | 16 | 201 | 6.4 | 8.0 | 0.13 | 0.15 | 0.13 | 68 | 996.6 |
| 20260905133139 | 17 | 38 | 1.6 | 6.4 | 0.10 | 0.18 | 0.10 | 66 | 996.6 |
| 20260905132137 | 17 | 36 | 1.6 | 4.8 | 0.10 | 0.18 | 0.10 | 63 | 996.6 |
| 20260905131153 | 17 | 298 | 3.2 | 4.8 | 0.10 | 0.18 | 0.10 | 66 | 996.6 |
| 20260905130116 | 16 | 161 | 3.2 | 6.4 | 0.08 | 0.18 | 0.08 | 62 | 996.3 |
| 20260905125202 | 15 | 183 | 1.6 | 6.4 | 0.08 | 0.15 | 0.08 | 76 | 996.2 |
| 20260905124139 | 16 | 108 | 1.6 | 3.2 | 0.00 | 0.10 | 0.00 | 70 | 996.2 |
| 20260905123133 | 16 | 48 | 1.6 | 3.2 | 0.00 | 0.10 | 0.00 | 68 | 996.2 |
| 20260905122135 | 17 | 255 | 1.6 | 3.2 | 0.00 | 0.10 | 0.00 | 61 | 996.1 |
| 20260905121137 | 18 | 288 | 4.8 | 9.7 | 0.00 | 0.10 | 0.00 | 61 | 996.0 |
| 20260905120138 | 17 | 205 | 6.4 | 14.5 | 0.00 | 0.10 | 0.00 | 63 | 995.8 |
| 20260905115158 | 17 | 181 | 4.8 | 12.9 | 0.00 | 0.10 | 0.00 | 66 | 995.8 |
| 20260905114135 | 16 | 195 | 6.4 | 9.7 | 0.00 | 0.10 | 0.00 | 69 | 995.8 |
| 20260905113138 | 16 | 200 | 6.4 | 12.9 | 0.00 | 0.10 | 0.00 | 70 | 995.6 |
| 20260905112137 | 16 | 202 | 8.0 | 11.3 | 0.00 | 0.10 | 0.00 | 67 | 995.5 |
| 20260905111138 | 16 | 156 | 3.2 | 6.4 | 0.00 | 0.10 | 0.00 | 68 | 995.5 |
| 20260905110136 | 16 | 199 | 3.2 | 8.0 | 0.00 | 0.10 | 0.00 | 68 | 995.5 |
| 20260905105138 | 16 | 193 | 1.6 | 3.2 | 0.00 | 0.10 | 0.00 | 69 | 995.5 |
| 20260905104135 | 18 | 197 | 3.2 | 4.8 | 0.00 | 0.10 | 0.00 | 55 | 995.5 |
| 20260905103157 | 18 | 26 | 1.6 | 3.2 | 0.00 | 0.10 | 0.00 | 57 | 995.4 |
| 20260905102135 | 18 | 317 | 1.6 | 4.8 | 0.00 | 0.10 | 0.00 | 58 | 995.3 |
| 20260905101141 | 17 | 8 | 1.6 | 3.2 | 0.00 | 0.10 | 0.00 | 60 | 995.3 |
| 20260905100137 | 17 | 345 | 1.6 | 3.2 | 0.00 | 0.10 | 0.00 | 60 | 995.3 |
| 20260905095134 | 18 | 25 | 1.6 | 4.8 | 0.00 | 0.10 | 0.00 | 59 | 995.3 |
| 20260905094201 | 18 | 358 | 1.6 | 3.2 | 0.00 | 0.10 | 0.00 | 59 | 995.3 |
| 20260905093137 | 18 | 302 | 3.2 | 4.8 | 0.00 | 0.10 | 0.00 | 59 | 995.2 |
| 20260905092132 | 17 | 302 | 3.2 | 6.4 | 0.00 | 0.10 | 0.00 | 64 | 995.2 |
| 20260905091136 | 18 | 241 | 3.2 | 6.4 | 0.00 | 0.10 | 0.00 | 63 | 995.1 |
| 20260905090117 | 18 | 243 | 1.6 | 3.2 | 0.00 | 0.10 | 0.00 | 63 | 995.1 |
| 20260905085139 | 16 | 351 | 1.6 | 3.2 | 0.00 | 0.10 | 0.00 | 71 | 994.8 |
| 20260905084136 | 15 | 192 | 1.6 | 1.6 | 0.00 | 0.10 | 0.00 | 76 | 994.7 |
| 20260905083138 | 15 | 36 | 1.6 | 1.6 | 0.00 | 0.10 | 0.00 | 79 | 994.8 |
| 20260905082140 | 14 | 349 | 1.6 | 3.2 | 0.00 | 0.10 | 0.00 | 79 | 994.7 |
| 20260905081136 | 14 | 311 | 1.6 | 3.2 | 0.00 | 0.10 | 0.00 | 83 | 994.6 |
| 20260905080138 | 13 | 326 | 1.6 | 3.2 | 0.00 | 0.10 | 0.00 | 86 | 994.6 |
| 20260905075140 | 13 | 179 | 1.6 | 3.2 | 0.00 | 0.10 | 0.00 | 86 | 994.5 |
| 20260905074203 | 13 | 213 | 1.6 | 3.2 | 0.00 | 0.10 | 0.00 | 89 | 994.5 |
| 20260905073138 | 12 | 215 | 1.6 | 3.2 | 0.00 | 0.10 | 0.00 | 89 | 994.5 |
| 20260905072133 | 12 | 271 | 0.0 | 1.6 | 0.00 | 0.10 | 0.00 | 90 | 994.3 |
| 20260905071139 | 12 | 289 | 1.6 | 1.6 | 0.00 | 0.10 | 0.00 | 92 | 994.3 |
| 20260905070143 | 12 | 330 | 1.6 | 3.2 | 0.00 | 0.10 | 0.00 | 92 | 994.3 |
| 20260905065138 | 12 | 335 | 0.0 | 1.6 | 0.00 | 0.10 | 0.00 | 93 | 994.3 |
| 20260905064135 | 11 | 16 | 1.6 | 1.6 | 0.00 | 0.10 | 0.00 | 93 | 994.3 |
| 20260905063135 | 11 | 31 | 1.6 | 4.8 | 0.00 | 0.10 | 0.00 | 94 | 994.2 |
| 20260905062142 | 11 | 24 | 1.6 | 3.2 | 0.00 | 0.10 | 0.00 | 96 | 994.3 |
| 20260905061154 | 11 | 46 | 1.6 | 4.8 | 0.00 | 0.10 | 0.00 | 97 | 994.3 |
| 20260905060139 | 11 | 88 | 0.0 | 1.6 | 0.00 | 0.10 | 0.00 | 98 | 994.3 |
| 20260905055143 | 10 | 40 | 3.2 | 6.4 | 0.00 | 0.10 | 0.00 | 98 | 994.2 |
| 20260905054137 | 10 | 22 | 4.8 | 8.0 | 0.00 | 0.10 | 0.00 | 99 | 994.3 |
| 20260905053135 | 10 | 60 | 1.6 | 6.4 | 0.00 | 0.10 | 0.00 | 100 | 994.2 |
| 20260905052140 | 10 | 334 | 0.0 | 1.6 | 0.00 | 0.10 | 0.00 | 100 | 994.3 |